createdAt,value
2017-12-15T00:02:03.623Z,2.50
2017-12-15T00:04:31.971Z,2.50
2017-12-15T00:07:00.299Z,2.50
2017-12-15T00:09:29.422Z,2.50
2017-12-15T00:11:57.768Z,2.50
2017-12-15T00:14:26.885Z,2.50
2017-12-15T00:16:55.203Z,2.40
2017-12-15T00:19:23.521Z,2.50
2017-12-15T00:21:52.695Z,2.40
2017-12-15T00:24:21.034Z,2.50
2017-12-15T00:26:49.372Z,2.40
2017-12-15T00:29:18.516Z,2.40
2017-12-15T00:31:46.870Z,2.40
2017-12-15T00:34:15.205Z,2.40
2017-12-15T00:36:43.550Z,2.40
2017-12-15T00:39:11.872Z,2.40
2017-12-15T00:41:40.958Z,2.40
2017-12-15T00:44:09.291Z,2.40
2017-12-15T00:46:37.639Z,2.40
2017-12-15T00:49:05.988Z,2.30
2017-12-15T00:51:34.372Z,2.30
2017-12-15T00:54:03.512Z,2.40
2017-12-15T00:56:31.878Z,2.40
2017-12-15T00:59:00.211Z,2.40
2017-12-15T01:01:28.607Z,2.40
2017-12-15T01:03:57.736Z,2.50
2017-12-15T01:06:26.082Z,2.50
2017-12-15T01:08:54.442Z,2.60
2017-12-15T01:11:22.784Z,2.60
2017-12-15T01:13:51.110Z,2.70
2017-12-15T01:16:19.463Z,2.70
2017-12-15T01:18:47.804Z,2.70
2017-12-15T01:21:16.139Z,2.70
2017-12-15T01:23:44.456Z,2.80
2017-12-15T01:26:12.739Z,2.80
2017-12-15T01:28:41.038Z,2.90
2017-12-15T01:31:09.337Z,2.80
2017-12-15T01:33:37.664Z,2.80
2017-12-15T01:36:05.987Z,2.70
2017-12-15T01:38:34.301Z,2.70
2017-12-15T01:41:03.390Z,2.70
2017-12-15T01:43:32.458Z,2.70
2017-12-15T01:46:00.762Z,2.70
2017-12-15T01:48:29.078Z,2.70
2017-12-15T01:50:57.374Z,2.60
2017-12-15T01:53:25.690Z,2.60
2017-12-15T01:55:54.750Z,2.60
2017-12-15T01:58:23.064Z,2.50
2017-12-15T02:00:52.195Z,2.60
2017-12-15T02:03:20.552Z,2.50
2017-12-15T02:05:48.897Z,2.50
2017-12-15T02:08:17.233Z,2.50
2017-12-15T02:10:45.583Z,2.50
2017-12-15T02:13:13.926Z,2.50
2017-12-15T02:15:42.253Z,2.50
2017-12-15T02:18:10.675Z,2.50
2017-12-15T02:20:39.032Z,2.40
2017-12-15T02:23:07.370Z,2.40
2017-12-15T02:25:35.719Z,2.40
2017-12-15T02:28:04.076Z,2.30
2017-12-15T02:30:32.406Z,2.20
2017-12-15T02:33:00.752Z,2.10
2017-12-15T02:35:29.104Z,2.00
2017-12-15T02:37:57.414Z,2.00
2017-12-15T02:40:26.549Z,1.60
2017-12-15T02:42:54.908Z,1.60
2017-12-15T02:45:23.240Z,1.60
2017-12-15T02:47:51.604Z,1.50
2017-12-15T02:50:19.981Z,1.40
2017-12-15T02:52:48.355Z,1.30
2017-12-15T02:55:16.672Z,1.20
2017-12-15T02:57:45.811Z,1.10
2017-12-15T03:00:14.182Z,1.10
2017-12-15T03:02:42.551Z,1.10
2017-12-15T03:05:10.884Z,1.00
2017-12-15T03:07:39.219Z,0.90
2017-12-15T03:10:07.683Z,0.90
2017-12-15T03:12:36.016Z,0.80
2017-12-15T03:15:04.360Z,0.80
2017-12-15T03:17:32.698Z,0.70
2017-12-15T03:20:01.065Z,0.70
2017-12-15T03:22:30.184Z,0.70
2017-12-15T03:24:58.511Z,0.70
2017-12-15T03:27:26.849Z,0.70
2017-12-15T03:29:55.203Z,0.70
2017-12-15T03:32:24.323Z,0.80
2017-12-15T03:34:52.675Z,0.80
2017-12-15T03:37:21.789Z,0.80
2017-12-15T03:39:50.138Z,0.80
2017-12-15T03:42:18.491Z,0.80
2017-12-15T03:44:46.847Z,0.80
2017-12-15T03:47:15.169Z,0.90
2017-12-15T03:49:43.520Z,0.80
2017-12-15T03:52:11.904Z,0.90
2017-12-15T03:54:40.250Z,1.00
2017-12-15T03:57:08.585Z,1.00
2017-12-15T03:59:37.700Z,1.00
2017-12-15T04:02:06.836Z,1.10
2017-12-15T04:04:35.203Z,1.10
2017-12-15T04:07:03.593Z,1.10
2017-12-15T04:09:31.944Z,1.20
2017-12-15T04:12:00.293Z,1.20
2017-12-15T04:14:29.416Z,1.20
2017-12-15T04:16:57.739Z,1.30
2017-12-15T04:19:26.106Z,1.20
2017-12-15T04:21:54.447Z,1.20
2017-12-15T04:24:22.788Z,1.30
2017-12-15T04:26:51.125Z,1.40
2017-12-15T04:29:19.475Z,1.40
2017-12-15T04:31:47.840Z,1.40
2017-12-15T04:34:16.951Z,1.60
2017-12-15T04:36:45.352Z,1.50
2017-12-15T04:39:13.712Z,1.60
2017-12-15T04:41:42.055Z,1.70
2017-12-15T04:44:10.412Z,1.70
2017-12-15T04:46:38.752Z,1.70
2017-12-15T04:49:07.107Z,1.70
2017-12-15T04:51:36.229Z,1.80
2017-12-15T04:54:04.561Z,1.80
2017-12-15T04:56:32.890Z,1.80
2017-12-15T04:59:01.260Z,1.80
2017-12-15T05:01:29.715Z,1.80
2017-12-15T05:03:58.908Z,1.90
2017-12-15T05:06:28.135Z,1.90
2017-12-15T05:08:56.504Z,1.90
2017-12-15T05:11:24.837Z,1.90
2017-12-15T05:13:53.158Z,1.90
2017-12-15T05:16:21.485Z,1.90
2017-12-15T05:18:49.827Z,1.90
2017-12-15T05:21:18.186Z,1.90
2017-12-15T05:23:46.502Z,1.90
2017-12-15T05:26:14.875Z,2.00
2017-12-15T05:28:43.202Z,2.00
2017-12-15T05:31:12.340Z,2.00
2017-12-15T05:33:40.679Z,2.00
2017-12-15T05:36:09.806Z,2.00
2017-12-15T05:38:38.158Z,2.00
2017-12-15T05:41:06.482Z,2.00
2017-12-15T05:43:34.790Z,2.00
2017-12-15T05:46:03.123Z,2.00
2017-12-15T05:48:31.547Z,2.00
2017-12-15T05:51:00.636Z,2.00
2017-12-15T05:53:28.990Z,2.00
2017-12-15T05:55:57.356Z,2.00
2017-12-15T05:58:25.679Z,2.00
2017-12-15T06:00:54.753Z,2.00
2017-12-15T06:03:23.084Z,2.00
2017-12-15T06:05:51.377Z,2.00
2017-12-15T06:08:19.654Z,2.00
2017-12-15T06:10:47.948Z,2.10
2017-12-15T06:13:16.243Z,2.00
2017-12-15T06:15:44.561Z,2.10
2017-12-15T06:18:12.859Z,2.10
2017-12-15T06:20:41.177Z,2.10
2017-12-15T06:23:09.468Z,2.10
2017-12-15T06:25:38.528Z,2.10
2017-12-15T06:28:06.811Z,2.10
2017-12-15T06:30:35.860Z,2.00
2017-12-15T06:33:04.153Z,2.00
2017-12-15T06:35:32.456Z,2.00
2017-12-15T06:38:00.744Z,2.00
2017-12-15T06:40:29.044Z,2.00
2017-12-15T06:42:58.110Z,1.90
2017-12-15T06:45:26.417Z,2.00
2017-12-15T06:47:55.498Z,1.90
2017-12-15T06:50:24.546Z,1.90
2017-12-15T06:52:52.838Z,1.90
2017-12-15T06:55:21.139Z,1.90
2017-12-15T06:57:49.442Z,2.00
2017-12-15T07:00:17.741Z,1.90
2017-12-15T07:02:46.035Z,2.00
2017-12-15T07:05:14.324Z,1.90
2017-12-15T07:07:42.608Z,1.90
2017-12-15T07:10:10.911Z,1.90
2017-12-15T07:12:39.966Z,1.90
2017-12-15T07:15:08.275Z,1.90
2017-12-15T07:17:37.327Z,1.90
2017-12-15T07:20:06.408Z,2.00
2017-12-15T07:22:34.707Z,1.90
2017-12-15T07:25:03.002Z,2.00
2017-12-15T07:27:31.300Z,2.00
2017-12-15T07:30:00.349Z,2.00
2017-12-15T07:32:28.684Z,2.00
2017-12-15T07:34:56.971Z,2.00
2017-12-15T07:37:25.264Z,2.00
2017-12-15T07:39:53.549Z,2.00
2017-12-15T07:42:21.840Z,2.10
2017-12-15T07:44:50.136Z,2.10
2017-12-15T07:47:18.429Z,2.10
2017-12-15T07:49:47.504Z,2.10
2017-12-15T07:52:15.797Z,2.10
2017-12-15T07:54:44.852Z,2.20
2017-12-15T07:57:13.150Z,2.20
2017-12-15T07:59:41.457Z,2.20
2017-12-15T08:02:09.772Z,2.20
2017-12-15T08:04:38.086Z,2.20
2017-12-15T08:07:06.396Z,2.10
2017-12-15T08:09:34.708Z,2.10
2017-12-15T08:12:03.024Z,2.10
2017-12-15T08:14:32.108Z,2.10
2017-12-15T08:17:00.424Z,2.10
2017-12-15T08:19:28.739Z,2.10
2017-12-15T08:21:58.568Z,2.10
2017-12-15T08:24:26.866Z,2.10
2017-12-15T08:26:55.948Z,2.10
2017-12-15T08:29:25.035Z,2.10
2017-12-15T08:31:53.344Z,2.10
2017-12-15T08:34:21.633Z,2.10
2017-12-15T08:36:49.962Z,2.20
2017-12-15T08:39:18.255Z,2.10
2017-12-15T08:41:47.308Z,2.20
2017-12-15T08:44:15.623Z,2.20
2017-12-15T08:46:44.696Z,2.20
2017-12-15T08:49:13.031Z,2.20
2017-12-15T08:51:41.336Z,2.30
2017-12-15T08:54:09.673Z,2.30
2017-12-15T08:56:38.763Z,2.40
2017-12-15T08:59:07.088Z,2.40
2017-12-15T09:01:35.381Z,2.60
2017-12-15T09:04:09.180Z,2.70
2017-12-15T09:06:37.463Z,2.70
2017-12-15T09:09:05.755Z,2.70
2017-12-15T09:11:34.846Z,2.70
2017-12-15T09:14:03.176Z,2.70
2017-12-15T09:16:31.472Z,2.70
2017-12-15T09:18:59.786Z,2.60
2017-12-15T09:21:28.847Z,2.50
2017-12-15T09:23:57.136Z,2.50
2017-12-15T09:26:25.440Z,2.50
2017-12-15T09:28:54.490Z,2.50
2017-12-15T09:31:22.802Z,2.50
2017-12-15T09:33:51.877Z,2.50
2017-12-15T09:36:20.179Z,2.50
2017-12-15T09:38:49.239Z,2.80
2017-12-15T09:41:17.539Z,2.70
2017-12-15T09:43:45.827Z,2.80
2017-12-15T09:46:14.883Z,2.90
2017-12-15T09:48:43.159Z,2.90
2017-12-15T09:51:11.461Z,2.90
2017-12-15T09:53:39.767Z,2.90
2017-12-15T09:56:08.059Z,3.00
2017-12-15T09:58:36.357Z,3.00
2017-12-15T10:01:04.674Z,3.00
2017-12-15T10:03:32.984Z,2.90
2017-12-15T10:06:01.289Z,2.90
2017-12-15T10:08:29.576Z,3.00
2017-12-15T10:10:57.895Z,3.00
2017-12-15T10:13:26.204Z,3.00
2017-12-15T10:15:54.542Z,3.10
2017-12-15T10:18:23.631Z,3.10
2017-12-15T10:20:52.730Z,3.10
2017-12-15T10:23:21.035Z,3.10
2017-12-15T10:25:49.367Z,3.00
2017-12-15T10:28:17.687Z,3.00
2017-12-15T10:30:45.987Z,3.00
2017-12-15T10:33:14.323Z,3.00
2017-12-15T10:35:42.676Z,2.90
2017-12-15T10:38:10.989Z,3.00
2017-12-15T10:40:39.319Z,2.80
2017-12-15T10:43:07.642Z,2.70
2017-12-15T10:45:35.951Z,2.70
2017-12-15T10:48:04.292Z,2.60
2017-12-15T10:50:32.580Z,2.50
2017-12-15T10:53:00.877Z,2.50
2017-12-15T10:55:29.169Z,2.50
2017-12-15T10:57:57.474Z,2.40
2017-12-15T11:00:25.821Z,2.40
2017-12-15T11:02:54.120Z,2.40
2017-12-15T11:05:22.429Z,2.30
2017-12-15T11:07:50.764Z,2.30
2017-12-15T11:10:19.075Z,2.40
2017-12-15T11:12:47.391Z,2.40
2017-12-15T11:15:15.691Z,2.40
2017-12-15T11:17:44.041Z,2.50
2017-12-15T11:20:12.383Z,2.50
2017-12-15T11:22:40.701Z,2.50
2017-12-15T11:25:08.979Z,2.60
2017-12-15T11:27:37.281Z,2.70
2017-12-15T11:30:05.604Z,2.60
2017-12-15T11:32:33.912Z,2.70
2017-12-15T11:35:02.218Z,2.70
2017-12-15T11:37:30.527Z,2.70
2017-12-15T11:39:58.802Z,2.70
2017-12-15T11:42:27.096Z,2.70
2017-12-15T11:44:55.378Z,2.70
2017-12-15T11:47:23.709Z,2.70
2017-12-15T11:49:51.989Z,2.70
2017-12-15T11:52:20.292Z,2.80
2017-12-15T11:54:48.609Z,2.80
2017-12-15T11:57:16.898Z,2.90
2017-12-15T11:59:45.179Z,2.90
2017-12-15T12:02:13.474Z,2.90
2017-12-15T12:04:41.769Z,2.90
2017-12-15T12:07:10.069Z,3.00
2017-12-15T12:09:38.355Z,3.00
2017-12-15T12:12:06.656Z,3.00
2017-12-15T12:14:34.959Z,3.10
2017-12-15T12:17:04.032Z,3.20
2017-12-15T12:19:32.322Z,3.20
2017-12-15T12:22:00.640Z,3.20
2017-12-15T12:24:28.917Z,3.30
2017-12-15T12:26:57.233Z,3.40
2017-12-15T12:29:25.526Z,3.40
2017-12-15T12:31:53.829Z,3.50
2017-12-15T12:34:22.137Z,3.50
2017-12-15T12:36:50.427Z,3.50
2017-12-15T12:39:18.736Z,3.60
2017-12-15T12:41:47.785Z,3.50
2017-12-15T12:44:16.081Z,3.50
2017-12-15T12:46:44.356Z,3.50
2017-12-15T12:49:12.656Z,3.30
2017-12-15T12:51:40.936Z,3.30
2017-12-15T12:54:09.578Z,3.30
2017-12-15T12:56:37.873Z,3.30
2017-12-15T12:59:06.174Z,3.30
2017-12-15T13:01:34.478Z,3.30
2017-12-15T13:04:02.782Z,3.50
2017-12-15T13:06:31.073Z,3.50
2017-12-15T13:08:59.353Z,3.40
2017-12-15T13:11:27.652Z,3.40
2017-12-15T13:13:55.940Z,3.30
2017-12-15T13:16:24.995Z,3.20
2017-12-15T13:18:53.275Z,3.20
2017-12-15T13:21:21.564Z,3.20
2017-12-15T13:23:49.844Z,3.20
2017-12-15T13:26:18.128Z,3.20
2017-12-15T13:28:46.431Z,3.20
2017-12-15T13:31:14.719Z,3.20
2017-12-15T13:33:43.030Z,3.20
2017-12-15T13:36:11.319Z,3.20
2017-12-15T13:38:39.612Z,3.10
2017-12-15T13:41:07.887Z,3.20
2017-12-15T13:43:36.935Z,3.10
2017-12-15T13:46:05.276Z,3.10
2017-12-15T13:48:34.329Z,3.00
2017-12-15T13:51:02.620Z,3.00
2017-12-15T13:53:30.903Z,3.00
2017-12-15T13:55:59.197Z,3.10
2017-12-15T13:58:28.268Z,3.10
2017-12-15T14:00:56.552Z,3.10
2017-12-15T14:03:24.844Z,3.10
2017-12-15T14:05:53.128Z,3.10
2017-12-15T14:08:21.410Z,3.00
2017-12-15T14:10:49.692Z,3.10
2017-12-15T14:13:17.981Z,3.00
2017-12-15T14:15:46.265Z,3.00
2017-12-15T14:18:14.584Z,3.00
2017-12-15T14:20:42.864Z,3.00
2017-12-15T14:23:11.937Z,3.00
2017-12-15T14:25:40.231Z,3.00
2017-12-15T14:28:09.317Z,3.00
2017-12-15T14:30:37.595Z,3.00
2017-12-15T14:33:05.896Z,3.00
2017-12-15T14:35:34.931Z,2.90
2017-12-15T14:38:03.230Z,2.90
2017-12-15T14:40:31.527Z,2.90
2017-12-15T14:43:00.578Z,2.70
2017-12-15T14:45:28.863Z,2.70
2017-12-15T14:47:57.178Z,2.60
2017-12-15T14:50:26.222Z,2.40
2017-12-15T14:52:54.523Z,2.40
2017-12-15T14:55:22.811Z,2.40
2017-12-15T14:57:51.129Z,2.30
2017-12-15T15:00:19.416Z,2.40
2017-12-15T15:02:47.727Z,2.30
2017-12-15T15:05:16.034Z,2.30
2017-12-15T15:07:45.101Z,2.40
2017-12-15T15:10:13.397Z,2.40
2017-12-15T15:12:41.679Z,2.30
2017-12-15T15:15:10.753Z,2.30
2017-12-15T15:17:39.059Z,2.30
2017-12-15T15:20:08.133Z,2.30
2017-12-15T15:22:36.427Z,2.20
2017-12-15T15:25:05.541Z,2.00
2017-12-15T15:27:33.855Z,2.00
2017-12-15T15:30:02.157Z,2.00
2017-12-15T15:32:30.440Z,2.00
2017-12-15T15:34:59.547Z,1.90
2017-12-15T15:37:28.632Z,1.80
2017-12-15T15:39:57.695Z,1.80
2017-12-15T15:42:25.976Z,1.80
2017-12-15T15:44:54.297Z,1.80
2017-12-15T15:47:22.591Z,1.80
2017-12-15T15:49:50.903Z,1.80
2017-12-15T15:52:19.198Z,1.80
2017-12-15T15:54:47.496Z,1.80
2017-12-15T15:57:16.552Z,1.80
2017-12-15T15:59:44.835Z,1.80
2017-12-15T16:02:13.152Z,1.90
2017-12-15T16:04:41.455Z,1.80
2017-12-15T16:07:09.762Z,1.90
2017-12-15T16:09:38.053Z,1.90
2017-12-15T16:12:06.331Z,1.90
2017-12-15T16:14:35.380Z,1.80
2017-12-15T16:17:03.642Z,1.80
2017-12-15T16:19:31.910Z,1.80
2017-12-15T16:22:00.176Z,1.80
2017-12-15T16:24:28.442Z,1.80
2017-12-15T16:26:57.484Z,1.80
2017-12-15T16:29:25.762Z,1.70
2017-12-15T16:31:54.041Z,1.80
2017-12-15T16:34:22.301Z,1.80
2017-12-15T16:36:50.571Z,1.80
2017-12-15T16:39:18.838Z,1.80
2017-12-15T16:41:47.115Z,1.80
2017-12-15T16:44:15.391Z,1.80
2017-12-15T16:46:43.670Z,1.80
2017-12-15T16:49:11.935Z,1.90
2017-12-15T16:51:40.222Z,1.90
2017-12-15T16:54:08.552Z,1.90
2017-12-15T16:56:36.772Z,2.00
2017-12-15T16:59:05.042Z,2.00
2017-12-15T17:01:33.314Z,2.00
2017-12-15T17:04:01.576Z,2.00
2017-12-15T17:06:30.607Z,2.00
2017-12-15T17:08:58.871Z,2.00
2017-12-15T17:11:27.143Z,2.00
2017-12-15T17:13:55.405Z,2.00
2017-12-15T17:16:23.686Z,2.00
2017-12-15T17:18:51.958Z,2.00
2017-12-15T17:21:20.221Z,2.00
2017-12-15T17:23:49.242Z,2.00
2017-12-15T17:26:17.520Z,2.00
2017-12-15T17:28:45.802Z,2.10
2017-12-15T17:31:14.080Z,2.10
2017-12-15T17:33:42.342Z,2.20
2017-12-15T17:36:10.680Z,2.20
2017-12-15T17:38:38.883Z,2.20
2017-12-15T17:41:07.166Z,2.10
2017-12-15T17:43:35.423Z,2.10
2017-12-15T17:46:04.460Z,2.10
2017-12-15T17:48:33.493Z,2.00
2017-12-15T17:51:02.542Z,2.10
2017-12-15T17:53:30.810Z,2.10
2017-12-15T17:55:59.086Z,2.10
2017-12-15T17:58:27.349Z,2.10
2017-12-15T18:00:55.621Z,2.10
2017-12-15T18:03:23.905Z,2.10
2017-12-15T18:05:52.170Z,2.10
2017-12-15T18:08:20.446Z,2.10
2017-12-15T18:10:48.727Z,2.10
2017-12-15T18:13:17.004Z,2.10
2017-12-15T18:15:45.264Z,2.10
2017-12-15T18:18:13.546Z,2.10
2017-12-15T18:20:41.823Z,2.00
2017-12-15T18:23:10.102Z,2.10
2017-12-15T18:25:38.361Z,2.00
2017-12-15T18:28:07.393Z,2.00
2017-12-15T18:30:35.666Z,2.00
2017-12-15T18:33:03.947Z,2.00
2017-12-15T18:35:32.202Z,2.00
2017-12-15T18:38:00.481Z,2.00
2017-12-15T18:40:28.761Z,2.10
2017-12-15T18:42:57.028Z,2.10
2017-12-15T18:45:25.288Z,2.10
2017-12-15T18:47:55.146Z,2.00
2017-12-15T18:50:23.412Z,2.00
2017-12-15T18:52:51.695Z,2.00
2017-12-15T18:55:19.964Z,2.00
2017-12-15T18:57:48.291Z,2.00
2017-12-15T19:00:16.564Z,2.00
2017-12-15T19:02:44.825Z,2.00
2017-12-15T19:05:13.108Z,2.00
2017-12-15T19:07:41.375Z,2.00
2017-12-15T19:10:09.658Z,2.00
2017-12-15T19:12:37.935Z,2.10
2017-12-15T19:15:06.209Z,2.10
2017-12-15T19:17:34.483Z,2.00
2017-12-15T19:20:02.755Z,2.00
2017-12-15T19:22:31.027Z,2.00
2017-12-15T19:24:59.305Z,2.00
2017-12-15T19:27:27.579Z,2.00
2017-12-15T19:29:55.845Z,2.00
2017-12-15T19:32:24.126Z,2.00
2017-12-15T19:34:52.410Z,2.00
2017-12-15T19:37:20.697Z,2.00
2017-12-15T19:39:48.975Z,2.00
2017-12-15T19:42:17.268Z,2.00
2017-12-15T19:44:46.302Z,2.20
2017-12-15T19:47:14.587Z,2.20
2017-12-15T19:49:42.866Z,2.20
2017-12-15T19:52:11.158Z,2.20
2017-12-15T19:54:39.434Z,2.20
2017-12-15T19:57:07.720Z,2.20
2017-12-15T19:59:36.046Z,2.20
2017-12-15T20:02:04.382Z,2.20
2017-12-15T20:04:32.642Z,2.00
2017-12-15T20:07:00.932Z,2.10
2017-12-15T20:09:29.229Z,2.10
2017-12-15T20:11:58.275Z,2.00
2017-12-15T20:14:26.542Z,2.00
2017-12-15T20:16:54.830Z,1.90
2017-12-15T20:19:23.156Z,1.90
2017-12-15T20:21:51.484Z,2.10
2017-12-15T20:24:19.800Z,2.10
2017-12-15T20:26:48.829Z,2.00
2017-12-15T20:29:17.110Z,2.00
2017-12-15T20:31:45.437Z,1.90
2017-12-15T20:34:13.710Z,1.80
2017-12-15T20:36:42.044Z,1.70
2017-12-15T20:39:10.314Z,1.70
2017-12-15T20:41:38.637Z,1.60
2017-12-15T20:44:06.973Z,1.60
2017-12-15T20:46:35.256Z,1.60
2017-12-15T20:49:03.547Z,1.60
2017-12-15T20:51:31.821Z,1.50
2017-12-15T20:54:00.098Z,1.60
2017-12-15T20:56:28.417Z,1.50
2017-12-15T20:58:56.759Z,1.50
2017-12-15T21:01:25.076Z,1.60
2017-12-15T21:03:54.123Z,1.80
2017-12-15T21:06:22.395Z,1.80
2017-12-15T21:08:50.681Z,1.80
2017-12-15T21:11:18.956Z,1.80
2017-12-15T21:13:47.285Z,1.60
2017-12-15T21:16:15.599Z,1.40
2017-12-15T21:18:43.916Z,1.30
2017-12-15T21:21:12.952Z,1.40
2017-12-15T21:23:41.270Z,1.40
2017-12-15T21:26:09.581Z,1.40
2017-12-15T21:28:38.681Z,1.50
2017-12-15T21:31:06.993Z,1.50
2017-12-15T21:33:35.280Z,1.70
2017-12-15T21:36:03.551Z,1.70
2017-12-15T21:38:31.837Z,1.70
2017-12-15T21:41:00.165Z,1.70
2017-12-15T21:43:28.444Z,1.60
2017-12-15T21:45:56.778Z,1.50
2017-12-15T21:48:25.045Z,1.50
2017-12-15T21:50:53.352Z,1.60
2017-12-15T21:53:22.390Z,1.80
2017-12-15T21:55:50.719Z,1.80
2017-12-15T21:58:19.042Z,1.90
2017-12-15T22:00:47.322Z,1.70
2017-12-15T22:03:15.646Z,1.80
2017-12-15T22:05:43.975Z,1.80
2017-12-15T22:08:12.242Z,1.80
2017-12-15T22:10:40.562Z,1.70
2017-12-15T22:13:08.831Z,1.70
2017-12-15T22:15:37.144Z,1.80
2017-12-15T22:18:06.242Z,1.80
2017-12-15T22:20:35.323Z,1.80
2017-12-15T22:23:03.602Z,1.80
2017-12-15T22:25:32.681Z,1.80
2017-12-15T22:28:00.962Z,1.80
2017-12-15T22:30:30.050Z,1.80
2017-12-15T22:32:58.376Z,1.80
2017-12-15T22:35:26.652Z,1.90
2017-12-15T22:37:54.965Z,2.00
2017-12-15T22:40:23.300Z,2.10
2017-12-15T22:42:51.609Z,1.90
2017-12-15T22:45:19.881Z,1.80
2017-12-15T22:47:48.164Z,1.60
2017-12-15T22:50:16.445Z,1.50
2017-12-15T22:52:44.753Z,1.60
2017-12-15T22:55:13.027Z,1.60
2017-12-15T22:57:41.328Z,1.70
2017-12-15T23:00:09.646Z,1.80
2017-12-15T23:02:37.958Z,1.80
2017-12-15T23:05:06.982Z,1.60
2017-12-15T23:07:35.254Z,1.60
2017-12-15T23:10:03.556Z,1.70
2017-12-15T23:12:31.827Z,1.70
2017-12-15T23:15:00.132Z,1.70
2017-12-15T23:17:28.406Z,1.70
2017-12-15T23:19:56.721Z,1.70
2017-12-15T23:22:25.032Z,1.70
2017-12-15T23:24:53.354Z,1.70
2017-12-15T23:27:21.625Z,1.70
2017-12-15T23:29:49.946Z,1.60
2017-12-15T23:32:18.257Z,1.70
2017-12-15T23:34:46.526Z,1.70
2017-12-15T23:37:14.859Z,1.60
2017-12-15T23:39:43.905Z,1.60
2017-12-15T23:42:12.223Z,1.60
2017-12-15T23:44:41.264Z,1.70
2017-12-15T23:47:09.589Z,1.70
2017-12-15T23:49:38.661Z,1.80
2017-12-15T23:52:06.930Z,1.80
2017-12-15T23:54:52.840Z,1.80
2017-12-15T23:57:21.114Z,1.70
2017-12-15T23:59:50.159Z,1.70
